sensor_id;sensor_type;location;lat;lon;timestamp;temperature;humidity
73322;DHT22;61549;37.044;22.128;2022-07-10T00:00:42;28.00;42.10
73322;DHT22;61549;37.044;22.128;2022-07-10T00:03:08;28.10;42.10
73322;DHT22;61549;37.044;22.128;2022-07-10T00:05:34;27.90;42.00
73322;DHT22;61549;37.044;22.128;2022-07-10T00:08:00;27.90;42.00
73322;DHT22;61549;37.044;22.128;2022-07-10T00:10:27;27.90;42.10
73322;DHT22;61549;37.044;22.128;2022-07-10T00:12:54;27.90;42.10
73322;DHT22;61549;37.044;22.128;2022-07-10T00:15:20;27.90;42.00
73322;DHT22;61549;37.044;22.128;2022-07-10T00:17:46;27.90;41.90
73322;DHT22;61549;37.044;22.128;2022-07-10T00:20:13;27.90;41.90
73322;DHT22;61549;37.044;22.128;2022-07-10T00:22:40;27.90;41.90
73322;DHT22;61549;37.044;22.128;2022-07-10T00:25:10;27.90;41.70
73322;DHT22;61549;37.044;22.128;2022-07-10T00:27:36;27.90;41.70
73322;DHT22;61549;37.044;22.128;2022-07-10T00:30:03;27.90;41.50
73322;DHT22;61549;37.044;22.128;2022-07-10T00:32:29;27.90;41.50
73322;DHT22;61549;37.044;22.128;2022-07-10T00:34:55;27.80;41.60
73322;DHT22;61549;37.044;22.128;2022-07-10T00:37:21;27.70;41.70
73322;DHT22;61549;37.044;22.128;2022-07-10T00:39:47;27.70;41.90
73322;DHT22;61549;37.044;22.128;2022-07-10T00:42:14;27.70;41.90
73322;DHT22;61549;37.044;22.128;2022-07-10T00:44:41;27.70;41.90
73322;DHT22;61549;37.044;22.128;2022-07-10T00:47:08;27.70;41.80
73322;DHT22;61549;37.044;22.128;2022-07-10T00:49:36;27.70;41.70
73322;DHT22;61549;37.044;22.128;2022-07-10T00:52:08;27.70;41.80
73322;DHT22;61549;37.044;22.128;2022-07-10T00:54:37;27.60;41.80
73322;DHT22;61549;37.044;22.128;2022-07-10T00:57:04;27.60;41.80
73322;DHT22;61549;37.044;22.128;2022-07-10T00:59:35;27.60;41.70
73322;DHT22;61549;37.044;22.128;2022-07-10T01:02:03;27.60;41.70
73322;DHT22;61549;37.044;22.128;2022-07-10T01:04:30;27.60;41.70
73322;DHT22;61549;37.044;22.128;2022-07-10T01:06:56;27.60;41.60
73322;DHT22;61549;37.044;22.128;2022-07-10T01:09:22;27.50;41.50
73322;DHT22;61549;37.044;22.128;2022-07-10T01:11:48;27.60;41.60
73322;DHT22;61549;37.044;22.128;2022-07-10T01:14:18;27.50;41.40
73322;DHT22;61549;37.044;22.128;2022-07-10T01:16:44;27.50;41.60
73322;DHT22;61549;37.044;22.128;2022-07-10T01:19:10;27.30;41.80
73322;DHT22;61549;37.044;22.128;2022-07-10T01:21:37;27.30;41.70
73322;DHT22;61549;37.044;22.128;2022-07-10T01:24:07;27.40;41.70
73322;DHT22;61549;37.044;22.128;2022-07-10T01:26:34;27.50;42.10
73322;DHT22;61549;37.044;22.128;2022-07-10T01:29:03;27.50;41.50
73322;DHT22;61549;37.044;22.128;2022-07-10T01:31:29;27.50;41.30
73322;DHT22;61549;37.044;22.128;2022-07-10T01:33:55;27.50;41.30
73322;DHT22;61549;37.044;22.128;2022-07-10T01:36:22;27.50;41.20
73322;DHT22;61549;37.044;22.128;2022-07-10T01:38:51;27.40;41.40
73322;DHT22;61549;37.044;22.128;2022-07-10T01:41:17;27.50;41.20
73322;DHT22;61549;37.044;22.128;2022-07-10T01:43:43;27.50;41.20
73322;DHT22;61549;37.044;22.128;2022-07-10T01:46:10;27.40;41.10
73322;DHT22;61549;37.044;22.128;2022-07-10T01:48:37;27.40;41.30
73322;DHT22;61549;37.044;22.128;2022-07-10T01:51:04;27.40;41.30
73322;DHT22;61549;37.044;22.128;2022-07-10T01:53:30;27.40;41.30
73322;DHT22;61549;37.044;22.128;2022-07-10T01:55:56;27.40;41.10
73322;DHT22;61549;37.044;22.128;2022-07-10T01:58:22;27.50;41.20
73322;DHT22;61549;37.044;22.128;2022-07-10T02:00:48;27.40;41.10
73322;DHT22;61549;37.044;22.128;2022-07-10T02:03:14;27.40;41.10
73322;DHT22;61549;37.044;22.128;2022-07-10T02:05:58;27.40;41.10
73322;DHT22;61549;37.044;22.128;2022-07-10T02:08:24;27.40;41.10
73322;DHT22;61549;37.044;22.128;2022-07-10T02:10:50;27.30;41.10
73322;DHT22;61549;37.044;22.128;2022-07-10T02:13:16;27.40;41.10
73322;DHT22;61549;37.044;22.128;2022-07-10T02:15:49;27.30;41.40
73322;DHT22;61549;37.044;22.128;2022-07-10T02:18:15;27.30;41.20
73322;DHT22;61549;37.044;22.128;2022-07-10T02:20:41;27.30;41.10
73322;DHT22;61549;37.044;22.128;2022-07-10T02:23:07;27.30;41.30
73322;DHT22;61549;37.044;22.128;2022-07-10T02:25:33;27.30;41.20
73322;DHT22;61549;37.044;22.128;2022-07-10T02:28:00;27.20;41.40
73322;DHT22;61549;37.044;22.128;2022-07-10T02:30:25;27.30;41.50
73322;DHT22;61549;37.044;22.128;2022-07-10T02:32:51;27.30;41.40
73322;DHT22;61549;37.044;22.128;2022-07-10T02:35:17;27.20;41.40
73322;DHT22;61549;37.044;22.128;2022-07-10T02:37:43;27.30;41.50
73322;DHT22;61549;37.044;22.128;2022-07-10T02:40:10;27.30;41.40
73322;DHT22;61549;37.044;22.128;2022-07-10T02:42:36;27.20;41.40
73322;DHT22;61549;37.044;22.128;2022-07-10T02:45:02;27.20;41.60
73322;DHT22;61549;37.044;22.128;2022-07-10T02:47:28;27.20;41.60
73322;DHT22;61549;37.044;22.128;2022-07-10T02:49:54;27.10;41.50
73322;DHT22;61549;37.044;22.128;2022-07-10T02:52:20;27.20;41.50
73322;DHT22;61549;37.044;22.128;2022-07-10T02:54:46;27.30;41.10
73322;DHT22;61549;37.044;22.128;2022-07-10T02:57:11;27.30;41.00
73322;DHT22;61549;37.044;22.128;2022-07-10T02:59:37;27.30;41.00
73322;DHT22;61549;37.044;22.128;2022-07-10T03:02:03;27.30;41.00
73322;DHT22;61549;37.044;22.128;2022-07-10T03:04:29;27.30;41.00
73322;DHT22;61549;37.044;22.128;2022-07-10T03:06:55;27.30;41.10
73322;DHT22;61549;37.044;22.128;2022-07-10T03:09:21;27.30;41.10
73322;DHT22;61549;37.044;22.128;2022-07-10T03:11:47;27.30;41.10
73322;DHT22;61549;37.044;22.128;2022-07-10T03:14:12;27.30;41.00
73322;DHT22;61549;37.044;22.128;2022-07-10T03:16:38;27.40;41.10
73322;DHT22;61549;37.044;22.128;2022-07-10T03:19:04;27.30;41.00
73322;DHT22;61549;37.044;22.128;2022-07-10T03:21:30;27.30;41.00
73322;DHT22;61549;37.044;22.128;2022-07-10T03:23:56;27.30;41.00
73322;DHT22;61549;37.044;22.128;2022-07-10T03:26:22;27.30;41.10
73322;DHT22;61549;37.044;22.128;2022-07-10T03:28:48;27.30;41.10
73322;DHT22;61549;37.044;22.128;2022-07-10T03:31:14;27.30;41.00
73322;DHT22;61549;37.044;22.128;2022-07-10T03:33:40;27.30;41.10
73322;DHT22;61549;37.044;22.128;2022-07-10T03:36:06;27.30;41.00
73322;DHT22;61549;37.044;22.128;2022-07-10T03:38:32;27.30;41.00
73322;DHT22;61549;37.044;22.128;2022-07-10T03:40:58;27.40;41.00
73322;DHT22;61549;37.044;22.128;2022-07-10T03:43:24;27.40;41.10
73322;DHT22;61549;37.044;22.128;2022-07-10T03:45:50;27.40;41.10
73322;DHT22;61549;37.044;22.128;2022-07-10T03:48:17;27.40;41.20
73322;DHT22;61549;37.044;22.128;2022-07-10T03:50:43;27.40;41.10
73322;DHT22;61549;37.044;22.128;2022-07-10T03:53:09;27.40;41.10
73322;DHT22;61549;37.044;22.128;2022-07-10T03:55:34;27.40;40.80
73322;DHT22;61549;37.044;22.128;2022-07-10T03:58:00;27.40;40.60
73322;DHT22;61549;37.044;22.128;2022-07-10T04:00:30;27.40;40.60
73322;DHT22;61549;37.044;22.128;2022-07-10T04:03:07;27.40;40.70
73322;DHT22;61549;37.044;22.128;2022-07-10T04:05:34;27.40;41.30
73322;DHT22;61549;37.044;22.128;2022-07-10T04:08:01;27.30;41.10
73322;DHT22;61549;37.044;22.128;2022-07-10T04:10:28;27.30;40.80
73322;DHT22;61549;37.044;22.128;2022-07-10T04:12:54;27.30;41.20
73322;DHT22;61549;37.044;22.128;2022-07-10T04:15:20;27.30;41.30
73322;DHT22;61549;37.044;22.128;2022-07-10T04:17:48;27.30;41.10
73322;DHT22;61549;37.044;22.128;2022-07-10T04:20:14;27.30;40.70
73322;DHT22;61549;37.044;22.128;2022-07-10T04:22:41;27.40;41.10
73322;DHT22;61549;37.044;22.128;2022-07-10T04:25:07;27.40;41.10
73322;DHT22;61549;37.044;22.128;2022-07-10T04:27:33;27.50;41.00
73322;DHT22;61549;37.044;22.128;2022-07-10T04:29:59;27.50;41.50
73322;DHT22;61549;37.044;22.128;2022-07-10T04:32:26;27.60;41.60
73322;DHT22;61549;37.044;22.128;2022-07-10T04:34:53;27.60;41.60
73322;DHT22;61549;37.044;22.128;2022-07-10T04:37:19;27.60;41.60
73322;DHT22;61549;37.044;22.128;2022-07-10T04:39:45;27.60;41.60
73322;DHT22;61549;37.044;22.128;2022-07-10T04:42:11;27.70;41.70
73322;DHT22;61549;37.044;22.128;2022-07-10T04:44:37;27.60;41.00
73322;DHT22;61549;37.044;22.128;2022-07-10T04:47:05;27.60;40.40
73322;DHT22;61549;37.044;22.128;2022-07-10T04:49:32;27.70;40.50
73322;DHT22;61549;37.044;22.128;2022-07-10T04:51:58;27.70;40.90
73322;DHT22;61549;37.044;22.128;2022-07-10T04:54:24;27.70;40.90
73322;DHT22;61549;37.044;22.128;2022-07-10T04:56:50;27.80;40.80
73322;DHT22;61549;37.044;22.128;2022-07-10T04:59:16;27.70;40.60
73322;DHT22;61549;37.044;22.128;2022-07-10T05:01:42;27.80;40.80
73322;DHT22;61549;37.044;22.128;2022-07-10T05:04:08;27.80;40.40
73322;DHT22;61549;37.044;22.128;2022-07-10T05:06:34;27.80;41.10
73322;DHT22;61549;37.044;22.128;2022-07-10T05:09:00;27.80;40.80
73322;DHT22;61549;37.044;22.128;2022-07-10T05:11:26;27.70;40.60
73322;DHT22;61549;37.044;22.128;2022-07-10T05:13:52;27.80;40.90
73322;DHT22;61549;37.044;22.128;2022-07-10T05:16:18;27.70;40.70
73322;DHT22;61549;37.044;22.128;2022-07-10T05:18:45;27.80;40.90
73322;DHT22;61549;37.044;22.128;2022-07-10T05:21:11;27.80;40.80
73322;DHT22;61549;37.044;22.128;2022-07-10T05:23:40;27.80;40.60
73322;DHT22;61549;37.044;22.128;2022-07-10T05:26:09;27.80;40.70
73322;DHT22;61549;37.044;22.128;2022-07-10T05:28:38;27.90;40.60
73322;DHT22;61549;37.044;22.128;2022-07-10T05:31:04;27.90;40.40
73322;DHT22;61549;37.044;22.128;2022-07-10T05:33:30;27.90;40.40
73322;DHT22;61549;37.044;22.128;2022-07-10T05:35:58;28.00;40.70
73322;DHT22;61549;37.044;22.128;2022-07-10T05:38:23;28.10;40.70
73322;DHT22;61549;37.044;22.128;2022-07-10T05:40:49;28.00;40.60
73322;DHT22;61549;37.044;22.128;2022-07-10T05:43:16;28.00;40.70
73322;DHT22;61549;37.044;22.128;2022-07-10T05:45:42;28.00;41.30
73322;DHT22;61549;37.044;22.128;2022-07-10T05:48:08;28.00;40.80
73322;DHT22;61549;37.044;22.128;2022-07-10T05:50:33;28.00;40.80
73322;DHT22;61549;37.044;22.128;2022-07-10T05:52:59;28.10;40.90
73322;DHT22;61549;37.044;22.128;2022-07-10T05:55:25;28.20;41.00
73322;DHT22;61549;37.044;22.128;2022-07-10T05:57:51;28.30;40.80
73322;DHT22;61549;37.044;22.128;2022-07-10T06:00:17;28.30;40.50
73322;DHT22;61549;37.044;22.128;2022-07-10T06:02:43;28.50;40.70
73322;DHT22;61549;37.044;22.128;2022-07-10T06:05:09;28.60;40.50
73322;DHT22;61549;37.044;22.128;2022-07-10T06:07:35;28.80;39.10
73322;DHT22;61549;37.044;22.128;2022-07-10T06:10:03;28.90;39.20
73322;DHT22;61549;37.044;22.128;2022-07-10T06:12:29;29.10;39.70
73322;DHT22;61549;37.044;22.128;2022-07-10T06:14:56;29.10;39.70
73322;DHT22;61549;37.044;22.128;2022-07-10T06:17:22;29.10;40.10
73322;DHT22;61549;37.044;22.128;2022-07-10T06:19:48;29.20;40.40
73322;DHT22;61549;37.044;22.128;2022-07-10T06:22:14;29.30;40.80
73322;DHT22;61549;37.044;22.128;2022-07-10T06:25:06;29.60;41.20
73322;DHT22;61549;37.044;22.128;2022-07-10T06:27:33;29.80;40.40
73322;DHT22;61549;37.044;22.128;2022-07-10T06:30:00;29.70;40.00
73322;DHT22;61549;37.044;22.128;2022-07-10T06:32:26;29.80;39.70
73322;DHT22;61549;37.044;22.128;2022-07-10T06:34:53;29.90;40.20
73322;DHT22;61549;37.044;22.128;2022-07-10T06:37:20;30.10;40.00
73322;DHT22;61549;37.044;22.128;2022-07-10T06:39:47;30.20;39.20
73322;DHT22;61549;37.044;22.128;2022-07-10T06:42:16;30.30;38.70
73322;DHT22;61549;37.044;22.128;2022-07-10T06:44:43;30.50;39.50
73322;DHT22;61549;37.044;22.128;2022-07-10T06:47:10;30.50;38.70
73322;DHT22;61549;37.044;22.128;2022-07-10T06:49:56;30.60;39.00
73322;DHT22;61549;37.044;22.128;2022-07-10T06:52:23;30.80;40.40
73322;DHT22;61549;37.044;22.128;2022-07-10T06:54:49;30.90;39.80
73322;DHT22;61549;37.044;22.128;2022-07-10T06:57:16;30.80;40.50
73322;DHT22;61549;37.044;22.128;2022-07-10T06:59:44;30.80;40.40
73322;DHT22;61549;37.044;22.128;2022-07-10T07:02:10;30.80;39.90
73322;DHT22;61549;37.044;22.128;2022-07-10T07:04:35;30.80;40.10
73322;DHT22;61549;37.044;22.128;2022-07-10T07:07:02;30.70;40.30
73322;DHT22;61549;37.044;22.128;2022-07-10T07:09:28;30.60;40.70
73322;DHT22;61549;37.044;22.128;2022-07-10T07:11:54;30.60;41.00
73322;DHT22;61549;37.044;22.128;2022-07-10T07:14:23;30.80;41.00
73322;DHT22;61549;37.044;22.128;2022-07-10T07:16:49;30.90;40.60
73322;DHT22;61549;37.044;22.128;2022-07-10T07:19:26;31.00;40.50
73322;DHT22;61549;37.044;22.128;2022-07-10T07:22:21;31.00;40.30
73322;DHT22;61549;37.044;22.128;2022-07-10T07:25:07;30.90;39.80
73322;DHT22;61549;37.044;22.128;2022-07-10T07:27:35;30.80;39.90
73322;DHT22;61549;37.044;22.128;2022-07-10T07:30:09;30.50;40.30
73322;DHT22;61549;37.044;22.128;2022-07-10T07:32:41;30.40;40.40
73322;DHT22;61549;37.044;22.128;2022-07-10T07:35:09;30.30;40.40
73322;DHT22;61549;37.044;22.128;2022-07-10T07:40:07;30.50;40.50
73322;DHT22;61549;37.044;22.128;2022-07-10T07:42:33;30.30;40.40
73322;DHT22;61549;37.044;22.128;2022-07-10T07:45:00;30.30;40.60
73322;DHT22;61549;37.044;22.128;2022-07-10T07:47:26;30.40;40.10
73322;DHT22;61549;37.044;22.128;2022-07-10T07:49:55;30.30;40.30
73322;DHT22;61549;37.044;22.128;2022-07-10T07:52:24;30.30;40.40
73322;DHT22;61549;37.044;22.128;2022-07-10T07:54:51;30.30;40.40
73322;DHT22;61549;37.044;22.128;2022-07-10T07:57:17;30.30;40.70
73322;DHT22;61549;37.044;22.128;2022-07-10T07:59:43;30.20;40.40
73322;DHT22;61549;37.044;22.128;2022-07-10T08:02:09;30.30;40.50
73322;DHT22;61549;37.044;22.128;2022-07-10T08:04:35;30.50;40.20
73322;DHT22;61549;37.044;22.128;2022-07-10T08:07:00;30.40;40.60
73322;DHT22;61549;37.044;22.128;2022-07-10T08:09:27;30.50;40.30
73322;DHT22;61549;37.044;22.128;2022-07-10T08:11:53;30.40;40.50
73322;DHT22;61549;37.044;22.128;2022-07-10T08:14:19;30.40;40.90
73322;DHT22;61549;37.044;22.128;2022-07-10T08:16:45;30.40;40.60
73322;DHT22;61549;37.044;22.128;2022-07-10T08:19:42;30.50;40.30
73322;DHT22;61549;37.044;22.128;2022-07-10T08:22:08;30.40;40.10
73322;DHT22;61549;37.044;22.128;2022-07-10T08:24:34;30.40;40.80
73322;DHT22;61549;37.044;22.128;2022-07-10T08:27:00;30.40;41.20
73322;DHT22;61549;37.044;22.128;2022-07-10T08:29:26;30.40;41.30
73322;DHT22;61549;37.044;22.128;2022-07-10T08:31:52;30.40;41.10
73322;DHT22;61549;37.044;22.128;2022-07-10T08:34:17;30.30;41.40
73322;DHT22;61549;37.044;22.128;2022-07-10T08:36:43;30.30;40.30
73322;DHT22;61549;37.044;22.128;2022-07-10T08:39:09;30.30;40.40
73322;DHT22;61549;37.044;22.128;2022-07-10T08:41:40;30.40;39.70
73322;DHT22;61549;37.044;22.128;2022-07-10T08:44:22;30.30;40.10
73322;DHT22;61549;37.044;22.128;2022-07-10T08:46:54;30.40;40.40
73322;DHT22;61549;37.044;22.128;2022-07-10T08:49:31;30.30;40.20
73322;DHT22;61549;37.044;22.128;2022-07-10T08:55:33;30.20;41.20
73322;DHT22;61549;37.044;22.128;2022-07-10T08:57:51;30.20;40.80
73322;DHT22;61549;37.044;22.128;2022-07-10T09:00:24;30.30;39.20
73322;DHT22;61549;37.044;22.128;2022-07-10T09:03:04;30.20;39.30
73322;DHT22;61549;37.044;22.128;2022-07-10T09:05:52;30.10;39.40
73322;DHT22;61549;37.044;22.128;2022-07-10T09:08:26;30.20;39.20
73322;DHT22;61549;37.044;22.128;2022-07-10T09:11:43;30.40;38.00
73322;DHT22;61549;37.044;22.128;2022-07-10T09:14:52;30.50;37.80
73322;DHT22;61549;37.044;22.128;2022-07-10T09:17:21;30.60;37.10
73322;DHT22;61549;37.044;22.128;2022-07-10T09:20:05;30.60;35.90
73322;DHT22;61549;37.044;22.128;2022-07-10T09:22:38;30.80;35.80
73322;DHT22;61549;37.044;22.128;2022-07-10T09:25:15;31.00;35.80
73322;DHT22;61549;37.044;22.128;2022-07-10T09:27:59;31.10;36.50
73322;DHT22;61549;37.044;22.128;2022-07-10T09:30:38;30.80;35.30
73322;DHT22;61549;37.044;22.128;2022-07-10T09:33:33;30.70;35.90
73322;DHT22;61549;37.044;22.128;2022-07-10T09:36:12;30.80;37.20
73322;DHT22;61549;37.044;22.128;2022-07-10T09:39:21;30.90;37.80
73322;DHT22;61549;37.044;22.128;2022-07-10T09:45:04;31.00;38.90
73322;DHT22;61549;37.044;22.128;2022-07-10T09:48:06;31.10;37.90
73322;DHT22;61549;37.044;22.128;2022-07-10T09:50:58;31.10;37.40
73322;DHT22;61549;37.044;22.128;2022-07-10T09:53:28;31.10;40.60
73322;DHT22;61549;37.044;22.128;2022-07-10T09:56:02;31.10;41.20
73322;DHT22;61549;37.044;22.128;2022-07-10T09:58:47;31.10;40.50
73322;DHT22;61549;37.044;22.128;2022-07-10T10:01:46;30.90;41.90
73322;DHT22;61549;37.044;22.128;2022-07-10T10:04:21;30.70;42.50
73322;DHT22;61549;37.044;22.128;2022-07-10T10:06:57;30.60;43.70
73322;DHT22;61549;37.044;22.128;2022-07-10T10:10:01;30.70;43.50
73322;DHT22;61549;37.044;22.128;2022-07-10T10:13:05;30.60;43.20
73322;DHT22;61549;37.044;22.128;2022-07-10T10:15:36;30.80;39.60
73322;DHT22;61549;37.044;22.128;2022-07-10T10:18:22;30.90;40.10
73322;DHT22;61549;37.044;22.128;2022-07-10T10:21:20;30.80;42.10
73322;DHT22;61549;37.044;22.128;2022-07-10T10:23:50;30.70;41.90
73322;DHT22;61549;37.044;22.128;2022-07-10T10:26:28;30.40;42.00
73322;DHT22;61549;37.044;22.128;2022-07-10T10:29:07;30.30;41.70
73322;DHT22;61549;37.044;22.128;2022-07-10T10:31:40;30.30;42.50
73322;DHT22;61549;37.044;22.128;2022-07-10T10:34:58;30.30;41.00
73322;DHT22;61549;37.044;22.128;2022-07-10T10:37:52;30.50;40.50
73322;DHT22;61549;37.044;22.128;2022-07-10T10:40:52;30.50;41.10
73322;DHT22;61549;37.044;22.128;2022-07-10T10:43:34;30.60;41.70
73322;DHT22;61549;37.044;22.128;2022-07-10T10:46:32;30.70;42.80
73322;DHT22;61549;37.044;22.128;2022-07-10T10:49:14;30.80;43.20
73322;DHT22;61549;37.044;22.128;2022-07-10T10:52:12;30.90;43.60
73322;DHT22;61549;37.044;22.128;2022-07-10T10:59:59;30.80;46.60
73322;DHT22;61549;37.044;22.128;2022-07-10T11:02:38;30.90;45.90
73322;DHT22;61549;37.044;22.128;2022-07-10T11:08:09;31.00;46.60
73322;DHT22;61549;37.044;22.128;2022-07-10T11:10:43;31.20;47.00
73322;DHT22;61549;37.044;22.128;2022-07-10T11:13:18;31.20;46.50
73322;DHT22;61549;37.044;22.128;2022-07-10T11:15:48;31.20;46.70
73322;DHT22;61549;37.044;22.128;2022-07-10T11:18:21;31.30;46.60
73322;DHT22;61549;37.044;22.128;2022-07-10T11:20:50;31.60;46.60
73322;DHT22;61549;37.044;22.128;2022-07-10T11:26:41;31.80;45.60
73322;DHT22;61549;37.044;22.128;2022-07-10T11:29:22;31.70;45.50
73322;DHT22;61549;37.044;22.128;2022-07-10T11:31:54;31.50;45.70
73322;DHT22;61549;37.044;22.128;2022-07-10T11:34:28;31.60;46.10
73322;DHT22;61549;37.044;22.128;2022-07-10T11:36:59;31.70;45.60
73322;DHT22;61549;37.044;22.128;2022-07-10T11:39:28;31.60;44.20
73322;DHT22;61549;37.044;22.128;2022-07-10T11:41:54;31.50;44.80
73322;DHT22;61549;37.044;22.128;2022-07-10T11:44:19;31.20;45.00
73322;DHT22;61549;37.044;22.128;2022-07-10T11:46:46;31.10;45.40
73322;DHT22;61549;37.044;22.128;2022-07-10T11:49:15;31.20;45.00
73322;DHT22;61549;37.044;22.128;2022-07-10T11:51:43;30.90;45.30
73322;DHT22;61549;37.044;22.128;2022-07-10T11:54:17;30.90;45.10
73322;DHT22;61549;37.044;22.128;2022-07-10T11:56:51;31.00;45.50
73322;DHT22;61549;37.044;22.128;2022-07-10T11:59:28;31.10;44.80
73322;DHT22;61549;37.044;22.128;2022-07-10T12:01:55;31.30;45.40
73322;DHT22;61549;37.044;22.128;2022-07-10T12:04:23;31.20;44.50
73322;DHT22;61549;37.044;22.128;2022-07-10T12:06:51;31.40;45.30
73322;DHT22;61549;37.044;22.128;2022-07-10T12:09:22;31.50;44.70
73322;DHT22;61549;37.044;22.128;2022-07-10T12:14:25;31.40;44.80
73322;DHT22;61549;37.044;22.128;2022-07-10T12:16:53;31.50;45.40
73322;DHT22;61549;37.044;22.128;2022-07-10T12:19:30;31.50;45.20
73322;DHT22;61549;37.044;22.128;2022-07-10T12:21:57;31.50;45.30
73322;DHT22;61549;37.044;22.128;2022-07-10T12:24:25;31.60;44.20
73322;DHT22;61549;37.044;22.128;2022-07-10T12:26:52;31.40;45.60
73322;DHT22;61549;37.044;22.128;2022-07-10T12:29:28;31.40;45.20
73322;DHT22;61549;37.044;22.128;2022-07-10T12:31:56;31.50;45.70
73322;DHT22;61549;37.044;22.128;2022-07-10T12:34:36;31.40;47.00
73322;DHT22;61549;37.044;22.128;2022-07-10T12:37:12;31.40;46.70
73322;DHT22;61549;37.044;22.128;2022-07-10T12:39:52;31.50;46.20
73322;DHT22;61549;37.044;22.128;2022-07-10T12:42:34;31.40;46.50
73322;DHT22;61549;37.044;22.128;2022-07-10T12:45:13;31.50;45.60
73322;DHT22;61549;37.044;22.128;2022-07-10T12:47:47;31.40;44.60
73322;DHT22;61549;37.044;22.128;2022-07-10T12:50:15;31.40;45.80
73322;DHT22;61549;37.044;22.128;2022-07-10T12:52:43;31.20;46.70
73322;DHT22;61549;37.044;22.128;2022-07-10T12:55:21;31.10;47.00
73322;DHT22;61549;37.044;22.128;2022-07-10T12:57:55;31.10;45.70
73322;DHT22;61549;37.044;22.128;2022-07-10T13:00:33;31.30;45.10
73322;DHT22;61549;37.044;22.128;2022-07-10T13:03:05;31.40;43.90
73322;DHT22;61549;37.044;22.128;2022-07-10T13:05:34;31.30;45.10
73322;DHT22;61549;37.044;22.128;2022-07-10T13:10:43;31.20;45.60
73322;DHT22;61549;37.044;22.128;2022-07-10T13:13:12;31.20;45.90
73322;DHT22;61549;37.044;22.128;2022-07-10T13:15:40;31.20;45.60
73322;DHT22;61549;37.044;22.128;2022-07-10T13:18:07;31.30;45.20
73322;DHT22;61549;37.044;22.128;2022-07-10T13:20:33;31.40;45.90
73322;DHT22;61549;37.044;22.128;2022-07-10T13:23:02;31.40;44.30
73322;DHT22;61549;37.044;22.128;2022-07-10T13:25:28;31.40;43.10
73322;DHT22;61549;37.044;22.128;2022-07-10T13:27:58;31.60;44.10
73322;DHT22;61549;37.044;22.128;2022-07-10T13:30:28;31.50;43.60
73322;DHT22;61549;37.044;22.128;2022-07-10T13:32:57;31.40;43.40
73322;DHT22;61549;37.044;22.128;2022-07-10T13:35:26;31.20;45.60
73322;DHT22;61549;37.044;22.128;2022-07-10T13:37:53;31.10;47.00
73322;DHT22;61549;37.044;22.128;2022-07-10T13:40:19;31.00;46.60
73322;DHT22;61549;37.044;22.128;2022-07-10T13:42:45;30.80;47.00
73322;DHT22;61549;37.044;22.128;2022-07-10T13:45:11;30.70;48.10
73322;DHT22;61549;37.044;22.128;2022-07-10T13:47:37;30.60;48.80
73322;DHT22;61549;37.044;22.128;2022-07-10T13:50:04;30.50;48.80
73322;DHT22;61549;37.044;22.128;2022-07-10T13:52:32;30.50;49.80
73322;DHT22;61549;37.044;22.128;2022-07-10T13:54:58;30.40;49.10
73322;DHT22;61549;37.044;22.128;2022-07-10T13:57:28;30.40;49.40
73322;DHT22;61549;37.044;22.128;2022-07-10T13:59:54;30.30;49.20
73322;DHT22;61549;37.044;22.128;2022-07-10T14:02:20;30.30;49.70
73322;DHT22;61549;37.044;22.128;2022-07-10T14:04:46;30.30;50.20
73322;DHT22;61549;37.044;22.128;2022-07-10T14:07:13;30.30;49.70
73322;DHT22;61549;37.044;22.128;2022-07-10T14:09:40;30.20;49.00
73322;DHT22;61549;37.044;22.128;2022-07-10T14:12:07;30.30;49.90
73322;DHT22;61549;37.044;22.128;2022-07-10T14:14:35;30.40;48.60
73322;DHT22;61549;37.044;22.128;2022-07-10T14:17:05;30.50;49.00
73322;DHT22;61549;37.044;22.128;2022-07-10T14:19:31;30.70;49.20
73322;DHT22;61549;37.044;22.128;2022-07-10T14:21:57;30.90;49.50
73322;DHT22;61549;37.044;22.128;2022-07-10T14:24:24;30.80;49.20
73322;DHT22;61549;37.044;22.128;2022-07-10T14:26:54;30.90;48.10
73322;DHT22;61549;37.044;22.128;2022-07-10T14:29:21;31.00;48.10
73322;DHT22;61549;37.044;22.128;2022-07-10T14:31:52;30.90;48.80
73322;DHT22;61549;37.044;22.128;2022-07-10T14:34:20;30.80;48.40
73322;DHT22;61549;37.044;22.128;2022-07-10T14:36:50;30.70;48.00
73322;DHT22;61549;37.044;22.128;2022-07-10T14:39:16;30.70;47.80
73322;DHT22;61549;37.044;22.128;2022-07-10T14:41:42;30.60;48.00
73322;DHT22;61549;37.044;22.128;2022-07-10T14:44:08;30.60;49.40
73322;DHT22;61549;37.044;22.128;2022-07-10T14:46:34;30.50;48.90
73322;DHT22;61549;37.044;22.128;2022-07-10T14:49:00;30.60;48.50
73322;DHT22;61549;37.044;22.128;2022-07-10T14:51:26;30.70;48.30
73322;DHT22;61549;37.044;22.128;2022-07-10T14:53:52;30.80;47.60
73322;DHT22;61549;37.044;22.128;2022-07-10T14:56:19;30.70;47.70
73322;DHT22;61549;37.044;22.128;2022-07-10T14:58:48;30.80;46.30
73322;DHT22;61549;37.044;22.128;2022-07-10T15:01:14;30.90;46.20
73322;DHT22;61549;37.044;22.128;2022-07-10T15:03:41;30.90;45.90
73322;DHT22;61549;37.044;22.128;2022-07-10T15:06:08;30.80;46.40
73322;DHT22;61549;37.044;22.128;2022-07-10T15:08:34;30.80;47.20
73322;DHT22;61549;37.044;22.128;2022-07-10T15:11:00;30.60;48.70
73322;DHT22;61549;37.044;22.128;2022-07-10T15:13:28;30.70;49.60
73322;DHT22;61549;37.044;22.128;2022-07-10T15:15:54;30.80;49.20
73322;DHT22;61549;37.044;22.128;2022-07-10T15:18:20;30.70;48.30
73322;DHT22;61549;37.044;22.128;2022-07-10T15:20:47;30.70;48.30
73322;DHT22;61549;37.044;22.128;2022-07-10T15:23:13;30.60;48.70
73322;DHT22;61549;37.044;22.128;2022-07-10T15:25:40;30.60;48.50
73322;DHT22;61549;37.044;22.128;2022-07-10T15:28:07;30.60;47.80
73322;DHT22;61549;37.044;22.128;2022-07-10T15:30:34;30.60;47.70
73322;DHT22;61549;37.044;22.128;2022-07-10T15:33:01;30.60;47.50
73322;DHT22;61549;37.044;22.128;2022-07-10T15:35:27;30.60;46.80
73322;DHT22;61549;37.044;22.128;2022-07-10T15:37:53;30.60;46.90
73322;DHT22;61549;37.044;22.128;2022-07-10T15:40:19;30.60;47.10
73322;DHT22;61549;37.044;22.128;2022-07-10T15:42:45;30.60;46.20
73322;DHT22;61549;37.044;22.128;2022-07-10T15:45:11;30.70;45.20
73322;DHT22;61549;37.044;22.128;2022-07-10T15:47:37;30.60;45.40
73322;DHT22;61549;37.044;22.128;2022-07-10T15:50:04;30.60;45.60
73322;DHT22;61549;37.044;22.128;2022-07-10T15:52:30;30.60;46.10
73322;DHT22;61549;37.044;22.128;2022-07-10T15:54:56;30.60;47.50
73322;DHT22;61549;37.044;22.128;2022-07-10T15:57:22;30.50;47.00